sensor_id;sensor_type;location;lat;lon;timestamp;temperature;humidity
43884;DHT22;29544;52.018;5.810;2023-05-14T00:00:33;21.10;52.90
43884;DHT22;29544;52.018;5.810;2023-05-14T00:02:59;21.10;52.90
43884;DHT22;29544;52.018;5.810;2023-05-14T00:05:24;21.10;52.90
43884;DHT22;29544;52.018;5.810;2023-05-14T00:07:50;21.10;52.90
43884;DHT22;29544;52.018;5.810;2023-05-14T00:10:15;21.10;52.90
43884;DHT22;29544;52.018;5.810;2023-05-14T00:12:43;21.10;53.00
43884;DHT22;29544;52.018;5.810;2023-05-14T00:15:08;21.10;53.00
43884;DHT22;29544;52.018;5.810;2023-05-14T00:17:34;21.10;53.00
43884;DHT22;29544;52.018;5.810;2023-05-14T00:19:59;21.00;53.00
43884;DHT22;29544;52.018;5.810;2023-05-14T00:22:25;21.10;53.10
43884;DHT22;29544;52.018;5.810;2023-05-14T00:24:50;21.00;53.00
43884;DHT22;29544;52.018;5.810;2023-05-14T00:27:16;21.10;53.10
43884;DHT22;29544;52.018;5.810;2023-05-14T00:29:41;21.00;53.10
43884;DHT22;29544;52.018;5.810;2023-05-14T00:32:07;21.00;53.10
43884;DHT22;29544;52.018;5.810;2023-05-14T00:34:32;21.00;53.10
43884;DHT22;29544;52.018;5.810;2023-05-14T00:36:57;21.00;53.10
43884;DHT22;29544;52.018;5.810;2023-05-14T00:39:23;21.00;53.20
43884;DHT22;29544;52.018;5.810;2023-05-14T00:41:48;21.00;53.30
43884;DHT22;29544;52.018;5.810;2023-05-14T00:44:14;21.00;53.30
43884;DHT22;29544;52.018;5.810;2023-05-14T00:46:39;21.00;53.30
43884;DHT22;29544;52.018;5.810;2023-05-14T00:49:05;21.00;53.40
43884;DHT22;29544;52.018;5.810;2023-05-14T00:51:30;21.00;53.40
43884;DHT22;29544;52.018;5.810;2023-05-14T00:53:56;20.90;53.30
43884;DHT22;29544;52.018;5.810;2023-05-14T00:56:21;20.90;53.40
43884;DHT22;29544;52.018;5.810;2023-05-14T00:58:47;21.00;53.50
43884;DHT22;29544;52.018;5.810;2023-05-14T01:01:12;20.80;53.40
43884;DHT22;29544;52.018;5.810;2023-05-14T01:03:39;20.90;53.50
43884;DHT22;29544;52.018;5.810;2023-05-14T01:06:15;20.90;53.50
43884;DHT22;29544;52.018;5.810;2023-05-14T01:08:58;20.90;53.60
43884;DHT22;29544;52.018;5.810;2023-05-14T01:11:29;20.90;53.60
43884;DHT22;29544;52.018;5.810;2023-05-14T01:14:00;20.90;53.60
43884;DHT22;29544;52.018;5.810;2023-05-14T01:16:27;20.90;53.70
43884;DHT22;29544;52.018;5.810;2023-05-14T01:18:53;20.90;53.70
43884;DHT22;29544;52.018;5.810;2023-05-14T01:21:24;20.90;53.80
43884;DHT22;29544;52.018;5.810;2023-05-14T01:23:49;20.90;53.80
43884;DHT22;29544;52.018;5.810;2023-05-14T01:26:15;20.90;53.90
43884;DHT22;29544;52.018;5.810;2023-05-14T01:28:40;20.90;53.90
43884;DHT22;29544;52.018;5.810;2023-05-14T01:31:11;20.80;53.90
43884;DHT22;29544;52.018;5.810;2023-05-14T01:33:37;20.90;54.00
43884;DHT22;29544;52.018;5.810;2023-05-14T01:36:06;20.80;53.90
43884;DHT22;29544;52.018;5.810;2023-05-14T01:38:31;20.80;54.00
43884;DHT22;29544;52.018;5.810;2023-05-14T01:40:58;20.80;54.10
43884;DHT22;29544;52.018;5.810;2023-05-14T01:43:24;20.80;54.10
43884;DHT22;29544;52.018;5.810;2023-05-14T01:45:50;20.80;54.10
43884;DHT22;29544;52.018;5.810;2023-05-14T01:48:15;20.80;54.20
43884;DHT22;29544;52.018;5.810;2023-05-14T01:50:41;20.80;54.20
43884;DHT22;29544;52.018;5.810;2023-05-14T01:53:06;20.80;54.30
43884;DHT22;29544;52.018;5.810;2023-05-14T01:55:31;20.80;54.30
43884;DHT22;29544;52.018;5.810;2023-05-14T01:57:57;20.80;54.30
43884;DHT22;29544;52.018;5.810;2023-05-14T02:00:23;20.80;54.30
43884;DHT22;29544;52.018;5.810;2023-05-14T02:02:50;20.80;54.30
43884;DHT22;29544;52.018;5.810;2023-05-14T02:05:15;20.70;54.30
43884;DHT22;29544;52.018;5.810;2023-05-14T02:07:40;20.70;54.30
43884;DHT22;29544;52.018;5.810;2023-05-14T02:10:06;20.70;54.30
43884;DHT22;29544;52.018;5.810;2023-05-14T02:12:32;20.70;54.40
43884;DHT22;29544;52.018;5.810;2023-05-14T02:14:57;20.70;54.40
43884;DHT22;29544;52.018;5.810;2023-05-14T02:17:23;20.70;54.50
43884;DHT22;29544;52.018;5.810;2023-05-14T02:19:49;20.70;54.50
43884;DHT22;29544;52.018;5.810;2023-05-14T02:22:14;20.70;54.50
43884;DHT22;29544;52.018;5.810;2023-05-14T02:24:40;20.70;54.50
43884;DHT22;29544;52.018;5.810;2023-05-14T02:27:05;20.70;54.50
43884;DHT22;29544;52.018;5.810;2023-05-14T02:29:31;20.70;54.50
43884;DHT22;29544;52.018;5.810;2023-05-14T02:31:56;20.70;54.60
43884;DHT22;29544;52.018;5.810;2023-05-14T02:34:21;20.60;54.50
43884;DHT22;29544;52.018;5.810;2023-05-14T02:36:47;20.60;54.60
43884;DHT22;29544;52.018;5.810;2023-05-14T02:39:12;20.70;54.70
43884;DHT22;29544;52.018;5.810;2023-05-14T02:41:38;20.60;54.60
43884;DHT22;29544;52.018;5.810;2023-05-14T02:44:03;20.60;54.70
43884;DHT22;29544;52.018;5.810;2023-05-14T02:46:29;20.60;54.60
43884;DHT22;29544;52.018;5.810;2023-05-14T02:48:55;20.60;54.70
43884;DHT22;29544;52.018;5.810;2023-05-14T02:51:20;20.60;54.80
43884;DHT22;29544;52.018;5.810;2023-05-14T02:53:46;20.60;54.80
43884;DHT22;29544;52.018;5.810;2023-05-14T02:56:11;20.60;54.80
43884;DHT22;29544;52.018;5.810;2023-05-14T02:58:37;20.60;54.80
43884;DHT22;29544;52.018;5.810;2023-05-14T03:01:02;20.60;54.80
43884;DHT22;29544;52.018;5.810;2023-05-14T03:03:28;20.60;54.80
43884;DHT22;29544;52.018;5.810;2023-05-14T03:05:53;20.60;54.90
43884;DHT22;29544;52.018;5.810;2023-05-14T03:08:19;20.50;54.90
43884;DHT22;29544;52.018;5.810;2023-05-14T03:10:44;20.50;54.90
43884;DHT22;29544;52.018;5.810;2023-05-14T03:13:10;20.50;54.90
43884;DHT22;29544;52.018;5.810;2023-05-14T03:15:35;20.50;54.90
43884;DHT22;29544;52.018;5.810;2023-05-14T03:18:01;20.50;54.90
43884;DHT22;29544;52.018;5.810;2023-05-14T03:20:26;20.50;55.00
43884;DHT22;29544;52.018;5.810;2023-05-14T03:22:52;20.50;55.00
43884;DHT22;29544;52.018;5.810;2023-05-14T03:25:18;20.50;55.00
43884;DHT22;29544;52.018;5.810;2023-05-14T03:27:44;20.50;55.00
43884;DHT22;29544;52.018;5.810;2023-05-14T03:30:09;20.50;55.00
43884;DHT22;29544;52.018;5.810;2023-05-14T03:32:36;20.50;55.10
43884;DHT22;29544;52.018;5.810;2023-05-14T03:35:01;20.50;55.00
43884;DHT22;29544;52.018;5.810;2023-05-14T03:37:27;20.50;55.10
43884;DHT22;29544;52.018;5.810;2023-05-14T03:39:52;20.40;55.00
43884;DHT22;29544;52.018;5.810;2023-05-14T03:42:18;20.40;55.00
43884;DHT22;29544;52.018;5.810;2023-05-14T03:44:43;20.40;55.10
43884;DHT22;29544;52.018;5.810;2023-05-14T03:47:09;20.40;55.10
43884;DHT22;29544;52.018;5.810;2023-05-14T03:49:34;20.40;55.10
43884;DHT22;29544;52.018;5.810;2023-05-14T03:52:00;20.40;55.10
43884;DHT22;29544;52.018;5.810;2023-05-14T03:54:25;20.40;55.20
43884;DHT22;29544;52.018;5.810;2023-05-14T03:56:51;20.40;55.20
43884;DHT22;29544;52.018;5.810;2023-05-14T03:59:16;20.40;55.10
43884;DHT22;29544;52.018;5.810;2023-05-14T04:01:42;20.40;55.20
43884;DHT22;29544;52.018;5.810;2023-05-14T04:04:08;20.40;55.20
43884;DHT22;29544;52.018;5.810;2023-05-14T04:06:33;20.40;55.20
43884;DHT22;29544;52.018;5.810;2023-05-14T04:08:59;20.40;55.20
43884;DHT22;29544;52.018;5.810;2023-05-14T04:11:24;20.40;55.20
43884;DHT22;29544;52.018;5.810;2023-05-14T04:13:50;20.30;55.20
43884;DHT22;29544;52.018;5.810;2023-05-14T04:16:15;20.40;55.30
43884;DHT22;29544;52.018;5.810;2023-05-14T04:18:41;20.30;55.20
43884;DHT22;29544;52.018;5.810;2023-05-14T04:21:06;20.30;55.30
43884;DHT22;29544;52.018;5.810;2023-05-14T04:23:31;20.30;55.20
43884;DHT22;29544;52.018;5.810;2023-05-14T04:25:57;20.30;55.30
43884;DHT22;29544;52.018;5.810;2023-05-14T04:28:23;20.30;55.30
43884;DHT22;29544;52.018;5.810;2023-05-14T04:30:48;20.30;55.30
43884;DHT22;29544;52.018;5.810;2023-05-14T04:33:14;20.30;55.30
43884;DHT22;29544;52.018;5.810;2023-05-14T04:35:39;20.30;55.30
43884;DHT22;29544;52.018;5.810;2023-05-14T04:38:05;20.30;55.30
43884;DHT22;29544;52.018;5.810;2023-05-14T04:40:30;20.30;55.30
43884;DHT22;29544;52.018;5.810;2023-05-14T04:42:56;20.20;55.30
43884;DHT22;29544;52.018;5.810;2023-05-14T04:45:21;20.20;55.30
43884;DHT22;29544;52.018;5.810;2023-05-14T04:47:47;20.20;55.30
43884;DHT22;29544;52.018;5.810;2023-05-14T04:50:13;20.20;55.30
43884;DHT22;29544;52.018;5.810;2023-05-14T04:52:38;20.20;55.40
43884;DHT22;29544;52.018;5.810;2023-05-14T04:55:04;20.20;55.30
43884;DHT22;29544;52.018;5.810;2023-05-14T04:57:30;20.20;55.40
43884;DHT22;29544;52.018;5.810;2023-05-14T04:59:55;20.20;55.40
43884;DHT22;29544;52.018;5.810;2023-05-14T05:02:20;20.20;55.40
43884;DHT22;29544;52.018;5.810;2023-05-14T05:04:46;20.20;55.40
43884;DHT22;29544;52.018;5.810;2023-05-14T05:07:11;20.20;55.40
43884;DHT22;29544;52.018;5.810;2023-05-14T05:09:37;20.20;55.50
43884;DHT22;29544;52.018;5.810;2023-05-14T05:12:03;20.20;55.50
43884;DHT22;29544;52.018;5.810;2023-05-14T05:14:29;20.20;55.50
43884;DHT22;29544;52.018;5.810;2023-05-14T05:16:54;20.20;55.50
43884;DHT22;29544;52.018;5.810;2023-05-14T05:19:20;20.20;55.50
43884;DHT22;29544;52.018;5.810;2023-05-14T05:21:45;20.10;55.50
43884;DHT22;29544;52.018;5.810;2023-05-14T05:24:10;20.10;55.50
43884;DHT22;29544;52.018;5.810;2023-05-14T05:26:37;20.10;55.50
43884;DHT22;29544;52.018;5.810;2023-05-14T05:29:03;20.10;55.60
43884;DHT22;29544;52.018;5.810;2023-05-14T05:31:28;20.10;55.60
43884;DHT22;29544;52.018;5.810;2023-05-14T05:33:54;20.10;55.60
43884;DHT22;29544;52.018;5.810;2023-05-14T05:36:20;20.10;55.60
43884;DHT22;29544;52.018;5.810;2023-05-14T05:38:45;20.10;55.70
43884;DHT22;29544;52.018;5.810;2023-05-14T05:41:11;20.10;55.80
43884;DHT22;29544;52.018;5.810;2023-05-14T05:43:36;20.10;55.70
43884;DHT22;29544;52.018;5.810;2023-05-14T05:46:01;20.10;55.80
43884;DHT22;29544;52.018;5.810;2023-05-14T05:48:27;20.10;55.80
43884;DHT22;29544;52.018;5.810;2023-05-14T05:50:52;20.10;55.80
43884;DHT22;29544;52.018;5.810;2023-05-14T05:53:18;20.10;55.90
43884;DHT22;29544;52.018;5.810;2023-05-14T05:55:43;20.10;55.90
43884;DHT22;29544;52.018;5.810;2023-05-14T05:58:09;20.10;55.90
43884;DHT22;29544;52.018;5.810;2023-05-14T06:00:34;20.10;55.90
43884;DHT22;29544;52.018;5.810;2023-05-14T06:03:00;20.10;55.90
43884;DHT22;29544;52.018;5.810;2023-05-14T06:05:25;20.10;55.90
43884;DHT22;29544;52.018;5.810;2023-05-14T06:07:51;20.10;55.90
43884;DHT22;29544;52.018;5.810;2023-05-14T06:10:18;20.00;55.90
43884;DHT22;29544;52.018;5.810;2023-05-14T06:12:43;20.10;56.00
43884;DHT22;29544;52.018;5.810;2023-05-14T06:15:09;20.10;56.00
43884;DHT22;29544;52.018;5.810;2023-05-14T06:17:36;20.10;56.00
43884;DHT22;29544;52.018;5.810;2023-05-14T06:20:02;20.00;55.90
43884;DHT22;29544;52.018;5.810;2023-05-14T06:22:27;20.10;56.10
43884;DHT22;29544;52.018;5.810;2023-05-14T06:24:52;20.10;56.00
43884;DHT22;29544;52.018;5.810;2023-05-14T06:27:18;20.10;56.00
43884;DHT22;29544;52.018;5.810;2023-05-14T06:29:44;20.10;56.00
43884;DHT22;29544;52.018;5.810;2023-05-14T06:32:09;20.10;56.10
43884;DHT22;29544;52.018;5.810;2023-05-14T06:34:34;20.10;56.00
43884;DHT22;29544;52.018;5.810;2023-05-14T06:37:00;20.10;55.90
43884;DHT22;29544;52.018;5.810;2023-05-14T06:39:28;20.10;56.00
43884;DHT22;29544;52.018;5.810;2023-05-14T06:41:53;20.10;56.00
43884;DHT22;29544;52.018;5.810;2023-05-14T06:44:19;20.10;55.90
43884;DHT22;29544;52.018;5.810;2023-05-14T06:46:44;20.10;55.90
43884;DHT22;29544;52.018;5.810;2023-05-14T06:49:10;20.10;55.90
43884;DHT22;29544;52.018;5.810;2023-05-14T06:51:35;20.10;56.00
43884;DHT22;29544;52.018;5.810;2023-05-14T06:54:01;20.10;56.00
43884;DHT22;29544;52.018;5.810;2023-05-14T06:56:26;20.10;55.90
43884;DHT22;29544;52.018;5.810;2023-05-14T06:58:51;20.10;55.90
43884;DHT22;29544;52.018;5.810;2023-05-14T07:01:17;20.10;56.00
43884;DHT22;29544;52.018;5.810;2023-05-14T07:03:42;20.20;56.00
43884;DHT22;29544;52.018;5.810;2023-05-14T07:06:08;20.10;56.00
43884;DHT22;29544;52.018;5.810;2023-05-14T07:08:33;20.20;56.10
43884;DHT22;29544;52.018;5.810;2023-05-14T07:10:58;20.10;56.10
43884;DHT22;29544;52.018;5.810;2023-05-14T07:13:24;20.20;56.10
43884;DHT22;29544;52.018;5.810;2023-05-14T07:15:51;20.20;56.20
43884;DHT22;29544;52.018;5.810;2023-05-14T07:18:17;20.20;56.20
43884;DHT22;29544;52.018;5.810;2023-05-14T07:20:42;20.20;56.30
43884;DHT22;29544;52.018;5.810;2023-05-14T07:23:08;20.20;56.40
43884;DHT22;29544;52.018;5.810;2023-05-14T07:25:33;20.20;56.40
43884;DHT22;29544;52.018;5.810;2023-05-14T07:27:58;20.20;56.40
43884;DHT22;29544;52.018;5.810;2023-05-14T07:30:24;20.20;56.50
43884;DHT22;29544;52.018;5.810;2023-05-14T07:32:49;20.20;56.70
43884;DHT22;29544;52.018;5.810;2023-05-14T07:35:15;20.20;56.70
43884;DHT22;29544;52.018;5.810;2023-05-14T07:37:40;20.30;56.80
43884;DHT22;29544;52.018;5.810;2023-05-14T07:40:07;20.30;56.80
43884;DHT22;29544;52.018;5.810;2023-05-14T07:42:32;20.30;57.00
43884;DHT22;29544;52.018;5.810;2023-05-14T07:44:58;20.30;57.00
43884;DHT22;29544;52.018;5.810;2023-05-14T07:47:24;20.30;57.30
43884;DHT22;29544;52.018;5.810;2023-05-14T07:49:52;20.30;57.40
43884;DHT22;29544;52.018;5.810;2023-05-14T07:52:18;20.30;57.50
43884;DHT22;29544;52.018;5.810;2023-05-14T07:54:43;20.30;57.60
43884;DHT22;29544;52.018;5.810;2023-05-14T07:57:09;20.30;57.60
43884;DHT22;29544;52.018;5.810;2023-05-14T07:59:34;20.40;57.70
43884;DHT22;29544;52.018;5.810;2023-05-14T08:01:59;20.40;57.70
43884;DHT22;29544;52.018;5.810;2023-05-14T08:04:25;20.40;57.60
43884;DHT22;29544;52.018;5.810;2023-05-14T08:06:50;20.40;57.60
43884;DHT22;29544;52.018;5.810;2023-05-14T08:09:16;20.40;57.60
43884;DHT22;29544;52.018;5.810;2023-05-14T08:11:41;20.40;57.50
43884;DHT22;29544;52.018;5.810;2023-05-14T08:14:07;20.40;57.50
43884;DHT22;29544;52.018;5.810;2023-05-14T08:16:32;20.40;57.50
43884;DHT22;29544;52.018;5.810;2023-05-14T08:18:58;20.40;57.50
43884;DHT22;29544;52.018;5.810;2023-05-14T08:21:23;20.40;57.50
43884;DHT22;29544;52.018;5.810;2023-05-14T08:23:48;20.40;57.50
43884;DHT22;29544;52.018;5.810;2023-05-14T08:26:14;20.40;57.40
43884;DHT22;29544;52.018;5.810;2023-05-14T08:28:39;20.40;57.40
43884;DHT22;29544;52.018;5.810;2023-05-14T08:31:05;20.40;57.40
43884;DHT22;29544;52.018;5.810;2023-05-14T08:33:30;20.40;57.50
43884;DHT22;29544;52.018;5.810;2023-05-14T08:35:55;20.40;57.40
43884;DHT22;29544;52.018;5.810;2023-05-14T08:38:22;20.50;57.40
43884;DHT22;29544;52.018;5.810;2023-05-14T08:40:48;20.50;57.40
43884;DHT22;29544;52.018;5.810;2023-05-14T08:43:18;20.40;57.30
43884;DHT22;29544;52.018;5.810;2023-05-14T08:45:44;20.50;57.40
43884;DHT22;29544;52.018;5.810;2023-05-14T08:48:10;20.50;57.30
43884;DHT22;29544;52.018;5.810;2023-05-14T08:50:38;20.50;57.30
43884;DHT22;29544;52.018;5.810;2023-05-14T08:53:04;20.50;57.30
43884;DHT22;29544;52.018;5.810;2023-05-14T08:55:29;20.50;57.40
43884;DHT22;29544;52.018;5.810;2023-05-14T08:57:56;20.50;57.30
43884;DHT22;29544;52.018;5.810;2023-05-14T09:00:21;20.50;57.40
43884;DHT22;29544;52.018;5.810;2023-05-14T09:02:47;20.50;57.30
43884;DHT22;29544;52.018;5.810;2023-05-14T09:05:12;20.50;57.40
43884;DHT22;29544;52.018;5.810;2023-05-14T09:07:39;20.60;57.40
43884;DHT22;29544;52.018;5.810;2023-05-14T09:10:04;20.60;57.30
43884;DHT22;29544;52.018;5.810;2023-05-14T09:12:30;20.60;57.40
43884;DHT22;29544;52.018;5.810;2023-05-14T09:14:55;20.60;57.40
43884;DHT22;29544;52.018;5.810;2023-05-14T09:17:21;20.60;57.30
43884;DHT22;29544;52.018;5.810;2023-05-14T09:19:49;20.60;57.30
43884;DHT22;29544;52.018;5.810;2023-05-14T09:22:17;20.60;57.30
43884;DHT22;29544;52.018;5.810;2023-05-14T09:24:42;20.70;57.30
43884;DHT22;29544;52.018;5.810;2023-05-14T09:27:13;20.70;57.30
43884;DHT22;29544;52.018;5.810;2023-05-14T09:29:39;20.70;57.30
43884;DHT22;29544;52.018;5.810;2023-05-14T09:32:05;20.70;57.20
43884;DHT22;29544;52.018;5.810;2023-05-14T09:34:33;20.70;57.30
43884;DHT22;29544;52.018;5.810;2023-05-14T09:37:02;20.70;57.50
43884;DHT22;29544;52.018;5.810;2023-05-14T09:39:28;20.70;57.60
43884;DHT22;29544;52.018;5.810;2023-05-14T09:41:54;20.70;57.60
43884;DHT22;29544;52.018;5.810;2023-05-14T09:44:20;20.80;57.60
43884;DHT22;29544;52.018;5.810;2023-05-14T09:46:46;20.80;57.80
43884;DHT22;29544;52.018;5.810;2023-05-14T09:49:12;20.90;58.20
43884;DHT22;29544;52.018;5.810;2023-05-14T09:51:37;20.90;58.50
43884;DHT22;29544;52.018;5.810;2023-05-14T09:54:03;20.90;58.50
43884;DHT22;29544;52.018;5.810;2023-05-14T09:56:29;20.90;58.60
43884;DHT22;29544;52.018;5.810;2023-05-14T09:58:54;20.90;58.60
43884;DHT22;29544;52.018;5.810;2023-05-14T10:01:20;20.90;58.60
43884;DHT22;29544;52.018;5.810;2023-05-14T10:03:46;21.00;58.80
43884;DHT22;29544;52.018;5.810;2023-05-14T10:06:12;21.00;58.70
43884;DHT22;29544;52.018;5.810;2023-05-14T10:08:40;21.00;58.70
43884;DHT22;29544;52.018;5.810;2023-05-14T10:11:11;21.10;58.60
43884;DHT22;29544;52.018;5.810;2023-05-14T10:13:38;21.10;58.60
43884;DHT22;29544;52.018;5.810;2023-05-14T10:16:07;21.10;58.70
43884;DHT22;29544;52.018;5.810;2023-05-14T10:18:38;21.10;58.70
43884;DHT22;29544;52.018;5.810;2023-05-14T10:21:05;21.20;58.70
43884;DHT22;29544;52.018;5.810;2023-05-14T10:23:31;21.20;58.70
43884;DHT22;29544;52.018;5.810;2023-05-14T10:25:57;21.20;58.70
43884;DHT22;29544;52.018;5.810;2023-05-14T10:28:23;21.20;58.60
43884;DHT22;29544;52.018;5.810;2023-05-14T10:30:49;21.20;58.50
43884;DHT22;29544;52.018;5.810;2023-05-14T10:33:15;21.20;58.50
43884;DHT22;29544;52.018;5.810;2023-05-14T10:38:31;21.30;58.40
43884;DHT22;29544;52.018;5.810;2023-05-14T10:41:06;21.30;58.40
43884;DHT22;29544;52.018;5.810;2023-05-14T10:43:37;21.30;58.40
43884;DHT22;29544;52.018;5.810;2023-05-14T10:46:03;21.30;58.30
43884;DHT22;29544;52.018;5.810;2023-05-14T10:48:28;21.40;58.30
43884;DHT22;29544;52.018;5.810;2023-05-14T10:50:56;21.30;58.20
43884;DHT22;29544;52.018;5.810;2023-05-14T10:53:38;21.30;58.10
43884;DHT22;29544;52.018;5.810;2023-05-14T10:56:09;21.30;58.10
43884;DHT22;29544;52.018;5.810;2023-05-14T10:58:38;21.30;58.10
43884;DHT22;29544;52.018;5.810;2023-05-14T11:01:07;21.40;58.00
43884;DHT22;29544;52.018;5.810;2023-05-14T11:03:40;21.40;57.90
43884;DHT22;29544;52.018;5.810;2023-05-14T11:06:06;21.40;57.80
43884;DHT22;29544;52.018;5.810;2023-05-14T11:08:31;21.40;57.70
43884;DHT22;29544;52.018;5.810;2023-05-14T11:10:57;21.40;57.60
43884;DHT22;29544;52.018;5.810;2023-05-14T11:13:25;21.40;57.60
43884;DHT22;29544;52.018;5.810;2023-05-14T11:15:50;21.40;57.40
43884;DHT22;29544;52.018;5.810;2023-05-14T11:18:26;21.40;57.40
43884;DHT22;29544;52.018;5.810;2023-05-14T11:20:52;21.40;57.30
43884;DHT22;29544;52.018;5.810;2023-05-14T11:23:17;21.40;57.30
43884;DHT22;29544;52.018;5.810;2023-05-14T11:25:43;21.40;57.20
43884;DHT22;29544;52.018;5.810;2023-05-14T11:28:08;21.40;57.20
43884;DHT22;29544;52.018;5.810;2023-05-14T11:30:34;21.40;57.00
43884;DHT22;29544;52.018;5.810;2023-05-14T11:32:59;21.40;56.90
43884;DHT22;29544;52.018;5.810;2023-05-14T11:35:25;21.40;56.80
43884;DHT22;29544;52.018;5.810;2023-05-14T11:37:51;21.40;56.90
43884;DHT22;29544;52.018;5.810;2023-05-14T11:40:17;21.40;56.80
43884;DHT22;29544;52.018;5.810;2023-05-14T11:42:42;21.40;56.70
43884;DHT22;29544;52.018;5.810;2023-05-14T11:45:11;21.40;56.70
43884;DHT22;29544;52.018;5.810;2023-05-14T11:47:37;21.40;56.60
43884;DHT22;29544;52.018;5.810;2023-05-14T11:50:02;21.40;56.60
43884;DHT22;29544;52.018;5.810;2023-05-14T11:52:28;21.40;56.60
43884;DHT22;29544;52.018;5.810;2023-05-14T11:54:53;21.50;56.60
43884;DHT22;29544;52.018;5.810;2023-05-14T11:57:19;21.40;56.60
43884;DHT22;29544;52.018;5.810;2023-05-14T11:59:46;21.50;56.60
43884;DHT22;29544;52.018;5.810;2023-05-14T12:02:12;21.50;56.60
43884;DHT22;29544;52.018;5.810;2023-05-14T12:04:39;21.40;56.50
43884;DHT22;29544;52.018;5.810;2023-05-14T12:07:11;21.50;56.60
43884;DHT22;29544;52.018;5.810;2023-05-14T12:09:38;21.50;56.60
43884;DHT22;29544;52.018;5.810;2023-05-14T12:12:11;21.50;56.60
43884;DHT22;29544;52.018;5.810;2023-05-14T12:14:40;21.50;56.60
43884;DHT22;29544;52.018;5.810;2023-05-14T12:17:13;21.50;56.60
43884;DHT22;29544;52.018;5.810;2023-05-14T12:19:40;21.50;56.60
43884;DHT22;29544;52.018;5.810;2023-05-14T12:22:06;21.50;56.60
43884;DHT22;29544;52.018;5.810;2023-05-14T12:24:32;21.50;56.60
43884;DHT22;29544;52.018;5.810;2023-05-14T12:26:59;21.50;56.60
43884;DHT22;29544;52.018;5.810;2023-05-14T12:29:25;21.60;56.50
43884;DHT22;29544;52.018;5.810;2023-05-14T12:31:50;21.50;56.40
43884;DHT22;29544;52.018;5.810;2023-05-14T12:34:16;21.60;56.40
43884;DHT22;29544;52.018;5.810;2023-05-14T12:36:42;21.60;56.30
43884;DHT22;29544;52.018;5.810;2023-05-14T12:39:07;21.50;56.30
43884;DHT22;29544;52.018;5.810;2023-05-14T12:41:34;21.50;56.20
43884;DHT22;29544;52.018;5.810;2023-05-14T12:44:00;21.50;56.20
43884;DHT22;29544;52.018;5.810;2023-05-14T12:46:26;21.50;56.10
43884;DHT22;29544;52.018;5.810;2023-05-14T12:48:52;21.60;56.20
43884;DHT22;29544;52.018;5.810;2023-05-14T12:51:17;21.50;56.10
43884;DHT22;29544;52.018;5.810;2023-05-14T12:53:43;21.50;56.10
43884;DHT22;29544;52.018;5.810;2023-05-14T12:56:09;21.50;56.70
43884;DHT22;29544;52.018;5.810;2023-05-14T12:58:34;21.50;56.10
43884;DHT22;29544;52.018;5.810;2023-05-14T13:00:59;21.60;56.10
43884;DHT22;29544;52.018;5.810;2023-05-14T13:03:25;21.50;56.00
43884;DHT22;29544;52.018;5.810;2023-05-14T13:05:51;21.60;56.00
43884;DHT22;29544;52.018;5.810;2023-05-14T13:08:16;21.50;55.90
43884;DHT22;29544;52.018;5.810;2023-05-14T13:10:42;21.60;55.90
43884;DHT22;29544;52.018;5.810;2023-05-14T13:13:08;21.60;55.80
43884;DHT22;29544;52.018;5.810;2023-05-14T13:15:34;21.60;55.80
43884;DHT22;29544;52.018;5.810;2023-05-14T13:18:00;21.60;55.80
43884;DHT22;29544;52.018;5.810;2023-05-14T13:20:26;21.60;55.80
43884;DHT22;29544;52.018;5.810;2023-05-14T13:22:52;21.60;55.90
43884;DHT22;29544;52.018;5.810;2023-05-14T13:25:17;21.60;55.90
43884;DHT22;29544;52.018;5.810;2023-05-14T13:27:43;21.60;55.90
43884;DHT22;29544;52.018;5.810;2023-05-14T13:30:08;21.60;55.90
43884;DHT22;29544;52.018;5.810;2023-05-14T13:32:34;21.60;55.90
43884;DHT22;29544;52.018;5.810;2023-05-14T13:34:59;21.60;55.80
43884;DHT22;29544;52.018;5.810;2023-05-14T13:37:25;21.60;55.80
43884;DHT22;29544;52.018;5.810;2023-05-14T13:39:51;21.70;55.80
43884;DHT22;29544;52.018;5.810;2023-05-14T13:42:16;21.70;55.80
43884;DHT22;29544;52.018;5.810;2023-05-14T13:44:41;21.60;55.80
43884;DHT22;29544;52.018;5.810;2023-05-14T13:47:07;21.60;55.70
43884;DHT22;29544;52.018;5.810;2023-05-14T13:49:32;21.70;55.70
43884;DHT22;29544;52.018;5.810;2023-05-14T13:51:58;21.60;55.60
43884;DHT22;29544;52.018;5.810;2023-05-14T13:54:23;21.70;55.50
43884;DHT22;29544;52.018;5.810;2023-05-14T13:56:49;21.70;55.60
43884;DHT22;29544;52.018;5.810;2023-05-14T13:59:14;21.70;55.60
43884;DHT22;29544;52.018;5.810;2023-05-14T14:01:40;21.70;55.60
43884;DHT22;29544;52.018;5.810;2023-05-14T14:04:08;21.70;55.40
43884;DHT22;29544;52.018;5.810;2023-05-14T14:06:33;21.70;55.50
43884;DHT22;29544;52.018;5.810;2023-05-14T14:08:59;21.70;55.50
43884;DHT22;29544;52.018;5.810;2023-05-14T14:11:24;21.70;55.50
43884;DHT22;29544;52.018;5.810;2023-05-14T14:13:50;21.70;55.40
43884;DHT22;29544;52.018;5.810;2023-05-14T14:16:15;21.70;55.40
43884;DHT22;29544;52.018;5.810;2023-05-14T14:18:41;21.70;55.30
43884;DHT22;29544;52.018;5.810;2023-05-14T14:21:07;21.70;55.40
43884;DHT22;29544;52.018;5.810;2023-05-14T14:23:33;21.70;55.30
43884;DHT22;29544;52.018;5.810;2023-05-14T14:25:58;21.70;55.30
43884;DHT22;29544;52.018;5.810;2023-05-14T14:28:24;21.70;55.30
43884;DHT22;29544;52.018;5.810;2023-05-14T14:30:49;21.70;55.20
43884;DHT22;29544;52.018;5.810;2023-05-14T14:33:15;21.80;55.50
43884;DHT22;29544;52.018;5.810;2023-05-14T14:35:40;21.70;55.10
43884;DHT22;29544;52.018;5.810;2023-05-14T14:38:06;21.70;55.00
43884;DHT22;29544;52.018;5.810;2023-05-14T14:40:32;21.70;55.20
43884;DHT22;29544;52.018;5.810;2023-05-14T14:42:57;21.70;54.80
43884;DHT22;29544;52.018;5.810;2023-05-14T14:45:23;21.70;54.90
43884;DHT22;29544;52.018;5.810;2023-05-14T14:47:48;21.70;55.40
43884;DHT22;29544;52.018;5.810;2023-05-14T14:50:14;21.80;54.80
43884;DHT22;29544;52.018;5.810;2023-05-14T14:52:40;21.80;54.80
43884;DHT22;29544;52.018;5.810;2023-05-14T14:55:07;21.70;54.70
43884;DHT22;29544;52.018;5.810;2023-05-14T14:57:33;21.70;54.80
43884;DHT22;29544;52.018;5.810;2023-05-14T14:59:58;21.80;54.80
43884;DHT22;29544;52.018;5.810;2023-05-14T15:02:24;21.70;54.70
43884;DHT22;29544;52.018;5.810;2023-05-14T15:04:49;21.70;54.70
43884;DHT22;29544;52.018;5.810;2023-05-14T15:07:15;21.70;54.70
43884;DHT22;29544;52.018;5.810;2023-05-14T15:09:41;21.80;54.70
43884;DHT22;29544;52.018;5.810;2023-05-14T15:12:07;21.70;54.60
43884;DHT22;29544;52.018;5.810;2023-05-14T15:14:34;21.70;54.70
43884;DHT22;29544;52.018;5.810;2023-05-14T15:16:59;21.70;54.70
43884;DHT22;29544;52.018;5.810;2023-05-14T15:19:25;21.70;54.60
43884;DHT22;29544;52.018;5.810;2023-05-14T15:21:50;21.70;54.60
43884;DHT22;29544;52.018;5.810;2023-05-14T15:24:16;21.70;54.70